Time;durP1;ratioP1;P1;durP2;ratioP2;P2;SDS_P1;SDS_P2;PMS_P1;PMS_P2;Temp;Humidity;BMP_temperature;BMP_pressure;BME280_temperature;BME280_humidity;BME280_pressure;Samples;Min_cycle;Max_cycle;Signal;HPM_P1;HPM_P2
2021/06/21 00:00:00;;;;;;;10.05;2.47;;;14.10;99.90;;;;;;5052810;28;20064;-89
2021/06/21 00:02:26;;;;;;;7.22;2.13;;;14.10;99.90;;;;;;5092828;28;20079;-91
2021/06/21 00:04:53;;;;;;;5.07;1.85;;;14.10;99.90;;;;;;5076099;28;20032;-89
2021/06/21 00:07:19;;;;;;;8.93;2.33;;;14.00;99.90;;;;;;5076285;28;20480;-89
2021/06/21 00:09:45;;;;;;;8.45;3.00;;;14.00;99.90;;;;;;5076117;28;20032;-91
2021/06/21 00:12:13;;;;;;;8.18;2.10;;;14.00;99.90;;;;;;5094746;28;20043;-90
2021/06/21 00:14:40;;;;;;;6.43;2.30;;;14.00;99.90;;;;;;5079662;28;20476;-90
2021/06/21 00:17:07;;;;;;;8.02;2.40;;;14.00;99.90;;;;;;5076157;28;20034;-89
2021/06/21 00:19:33;;;;;;;5.32;2.03;;;13.90;99.90;;;;;;5076679;28;20059;-90
2021/06/21 00:22:00;;;;;;;9.00;1.67;;;13.90;99.90;;;;;;5094421;28;20073;-91
2021/06/21 00:24:26;;;;;;;5.47;2.55;;;13.90;99.90;;;;;;5060313;28;20047;-89
2021/06/21 00:26:52;;;;;;;5.70;2.03;;;13.80;99.90;;;;;;5075872;28;20406;-90
2021/06/21 00:29:20;;;;;;;14.57;2.00;;;13.80;99.90;;;;;;5093520;28;20070;-88
2021/06/21 00:31:46;;;;;;;7.65;2.22;;;13.80;99.90;;;;;;5093100;28;20135;-92
2021/06/21 00:34:13;;;;;;;5.90;1.92;;;13.80;99.90;;;;;;5076054;28;20048;-89
2021/06/21 00:36:39;;;;;;;4.70;1.88;;;13.80;99.90;;;;;;5071739;28;20415;-89
2021/06/21 00:39:07;;;;;;;4.10;1.77;;;13.90;99.90;;;;;;5054961;28;20040;-89
2021/06/21 00:41:34;;;;;;;3.70;1.98;;;13.80;99.90;;;;;;5086763;28;20407;-89
2021/06/21 00:44:00;;;;;;;6.32;1.95;;;13.90;99.90;;;;;;5077583;28;20118;-88
2021/06/21 00:46:26;;;;;;;2.75;1.45;;;13.90;99.90;;;;;;5074988;28;20551;-88
2021/06/21 00:48:51;;;;;;;3.90;1.60;;;13.90;99.90;;;;;;5091351;28;20525;-90
2021/06/21 00:51:18;;;;;;;10.35;2.10;;;13.90;99.90;;;;;;5075293;28;20126;-89
2021/06/21 00:53:44;;;;;;;5.03;1.73;;;13.90;99.90;;;;;;5071263;28;20036;-89
2021/06/21 00:56:10;;;;;;;4.05;1.67;;;13.90;99.90;;;;;;5046735;28;20043;-89
2021/06/21 00:58:37;;;;;;;8.38;1.35;;;13.90;99.90;;;;;;5074000;28;20051;-89
2021/06/21 01:01:04;;;;;;;6.57;1.52;;;13.90;99.90;;;;;;5091215;28;20544;-89
2021/06/21 01:03:30;;;;;;;3.13;1.23;;;13.90;99.90;;;;;;5073599;28;20503;-90
2021/06/21 01:05:56;;;;;;;4.90;1.60;;;13.90;99.90;;;;;;5051425;28;20036;-89
2021/06/21 01:08:22;;;;;;;3.35;1.42;;;13.90;99.90;;;;;;5049362;28;20055;-89
2021/06/21 01:10:51;;;;;;;5.43;1.50;;;13.90;99.90;;;;;;5073591;28;20073;-90
2021/06/21 01:13:44;;;;;;;8.57;1.17;;;14.00;99.90;;;;;;5091338;28;20051;-90
2021/06/21 01:16:20;;;;;;;3.75;1.50;;;13.90;99.90;;;;;;5085131;28;20129;-90
2021/06/21 01:19:10;;;;;;;7.00;1.30;;;13.90;99.90;;;;;;5066791;28;20044;-91
2021/06/21 01:21:49;;;;;;;2.88;1.00;;;13.90;99.90;;;;;;5091632;28;20122;-88
2021/06/21 01:25:02;;;;;;;5.68;1.33;;;13.90;99.90;;;;;;5072857;28;20048;-90
2021/06/21 01:27:31;;;;;;;2.08;1.15;;;13.90;99.90;;;;;;5086287;28;20056;-89
2021/06/21 01:30:13;;;;;;;3.72;0.90;;;13.90;99.90;;;;;;5072500;28;20050;-89
2021/06/21 01:32:45;;;;;;;3.40;1.25;;;13.90;99.90;;;;;;5091288;28;20066;-89
2021/06/21 01:35:34;;;;;;;7.07;1.27;;;13.90;99.90;;;;;;5066453;28;20082;-90
2021/06/21 01:38:03;;;;;;;6.47;1.67;;;13.90;99.90;;;;;;5092315;28;20040;-90
2021/06/21 01:40:36;;;;;;;5.57;1.90;;;13.90;99.90;;;;;;5092005;28;20068;-89
2021/06/21 01:43:04;;;;;;;5.15;1.88;;;14.00;99.90;;;;;;5071805;28;20040;-89
2021/06/21 01:45:32;;;;;;;4.72;1.60;;;13.90;99.90;;;;;;5091319;28;20127;-90
2021/06/21 01:48:00;;;;;;;5.05;1.73;;;13.90;99.90;;;;;;5091405;28;20040;-89
2021/06/21 01:50:27;;;;;;;4.55;1.65;;;14.00;99.90;;;;;;5073293;28;20518;-89
2021/06/21 01:53:00;;;;;;;5.15;1.48;;;14.00;99.90;;;;;;5056297;28;20039;-91
2021/06/21 01:55:29;;;;;;;9.45;2.13;;;14.00;99.90;;;;;;5073092;28;20109;-89
2021/06/21 01:57:58;;;;;;;3.58;2.00;;;14.00;99.90;;;;;;5072720;28;20056;-90
2021/06/21 02:00:24;;;;;;;6.60;2.20;;;14.00;99.90;;;;;;5090777;28;20108;-89
2021/06/21 02:02:54;;;;;;;6.03;1.77;;;14.00;99.90;;;;;;5073007;28;20751;-91
2021/06/21 02:05:21;;;;;;;5.05;2.22;;;14.00;99.90;;;;;;5077118;28;20044;-88
2021/06/21 02:07:50;;;;;;;14.88;4.10;;;14.00;99.90;;;;;;5081793;28;20041;-89
2021/06/21 02:10:18;;;;;;;5.15;2.22;;;14.00;99.90;;;;;;5087069;28;20067;-89
2021/06/21 02:12:45;;;;;;;4.75;1.77;;;14.00;99.90;;;;;;5074452;28;20059;-89
2021/06/21 02:15:12;;;;;;;4.50;1.90;;;14.00;99.90;;;;;;5073696;28;20056;-91
2021/06/21 02:17:38;;;;;;;12.68;2.75;;;14.00;99.90;;;;;;5091966;28;20036;-89
2021/06/21 02:20:06;;;;;;;4.57;2.00;;;14.00;99.90;;;;;;5049556;28;20679;-90
2021/06/21 02:22:33;;;;;;;6.90;2.40;;;14.00;99.90;;;;;;5070576;28;20064;-90
2021/06/21 02:25:01;;;;;;;9.45;3.08;;;14.00;99.90;;;;;;5066476;28;20071;-90
2021/06/21 02:27:29;;;;;;;7.40;2.40;;;14.00;99.90;;;;;;5068447;28;20480;-89
2021/06/21 02:29:56;;;;;;;16.45;2.80;;;14.10;99.90;;;;;;5073552;28;20059;-90
2021/06/21 02:32:23;;;;;;;7.40;1.92;;;14.10;99.90;;;;;;5075333;28;20040;-88
2021/06/21 02:34:51;;;;;;;10.60;2.95;;;14.00;99.90;;;;;;5073505;28;20070;-89
2021/06/21 02:37:18;;;;;;;9.77;2.40;;;14.10;99.90;;;;;;5073663;28;20127;-88
2021/06/21 02:39:44;;;;;;;13.25;2.95;;;14.10;99.90;;;;;;5091951;28;20093;-88
2021/06/21 02:42:11;;;;;;;10.15;2.63;;;14.10;99.90;;;;;;5055358;28;20155;-88
2021/06/21 02:44:37;;;;;;;11.50;2.70;;;14.10;99.90;;;;;;5072080;28;20108;-88
2021/06/21 02:47:04;;;;;;;9.02;2.42;;;14.10;99.90;;;;;;5081796;28;20454;-90
2021/06/21 02:49:30;;;;;;;10.50;2.70;;;14.00;99.90;;;;;;5065689;28;20078;-88
2021/06/21 02:52:14;;;;;;;10.57;2.92;;;14.10;99.90;;;;;;5072432;28;20043;-91
2021/06/21 02:55:07;;;;;;;10.40;2.17;;;14.10;99.90;;;;;;5073089;28;20102;-89
2021/06/21 02:57:55;;;;;;;10.90;2.42;;;14.10;99.90;;;;;;5089930;28;20036;-90
2021/06/21 03:00:22;;;;;;;6.07;1.95;;;14.10;99.90;;;;;;5090946;28;20043;-89
2021/06/21 03:02:48;;;;;;;6.60;2.13;;;14.10;99.90;;;;;;5091641;28;20044;-90
2021/06/21 03:05:17;;;;;;;7.43;2.47;;;14.10;99.90;;;;;;5056075;28;20055;-89
2021/06/21 03:07:44;;;;;;;9.57;2.55;;;14.00;99.90;;;;;;5073760;28;20072;-89
2021/06/21 03:10:13;;;;;;;6.80;1.90;;;14.00;99.90;;;;;;5071952;28;20059;-90
2021/06/21 03:12:43;;;;;;;6.82;1.90;;;13.90;99.90;;;;;;5089157;28;20044;-90
2021/06/21 03:15:09;;;;;;;12.00;1.80;;;13.90;99.90;;;;;;5072275;28;20048;-90
2021/06/21 03:17:38;;;;;;;6.32;2.30;;;13.80;99.90;;;;;;5055967;28;20067;-90
2021/06/21 03:20:05;;;;;;;3.95;1.60;;;13.80;99.90;;;;;;5089599;28;20120;-90
2021/06/21 03:22:31;;;;;;;8.13;1.80;;;13.80;99.90;;;;;;5089763;28;20043;-90
2021/06/21 03:24:57;;;;;;;5.40;1.92;;;13.80;99.90;;;;;;5072694;28;20504;-90
2021/06/21 03:27:28;;;;;;;11.25;2.33;;;13.80;99.90;;;;;;5082832;28;20052;-90
2021/06/21 03:29:55;;;;;;;7.18;1.90;;;13.80;99.90;;;;;;5058681;28;20055;-89
2021/06/21 03:32:28;;;;;;;16.75;2.50;;;13.80;99.90;;;;;;5089837;28;20446;-89
2021/06/21 03:34:58;;;;;;;11.48;2.35;;;13.80;99.90;;;;;;5072823;28;20131;-90
2021/06/21 03:37:24;;;;;;;10.75;2.00;;;13.80;99.90;;;;;;5073163;28;20036;-90
2021/06/21 03:39:50;;;;;;;10.65;2.20;;;13.80;99.90;;;;;;5090313;28;20441;-91
2021/06/21 03:42:16;;;;;;;15.60;2.70;;;13.70;99.90;;;;;;5056886;28;20078;-91
2021/06/21 03:44:43;;;;;;;13.88;3.47;;;13.70;99.90;;;;;;5069953;28;20064;-90
2021/06/21 03:47:11;;;;;;;10.95;2.05;;;13.60;99.90;;;;;;5091087;28;20105;-90
2021/06/21 03:49:38;;;;;;;8.18;2.30;;;13.60;99.90;;;;;;5072954;28;20052;-90
2021/06/21 03:52:05;;;;;;;7.35;2.33;;;13.60;99.90;;;;;;5056260;28;20040;-90
2021/06/21 03:54:31;;;;;;;7.63;2.20;;;13.60;99.90;;;;;;5065721;28;20052;-90
2021/06/21 03:56:57;;;;;;;6.63;2.33;;;13.50;99.90;;;;;;5036357;28;20040;-90
2021/06/21 03:59:22;;;;;;;3.60;1.70;;;13.50;99.90;;;;;;5080424;28;20040;-91
2021/06/21 04:01:49;;;;;;;10.27;2.45;;;13.50;99.90;;;;;;5053189;28;20044;-89
2021/06/21 04:04:15;;;;;;;14.80;2.45;;;13.50;99.90;;;;;;5072975;28;20060;-90
2021/06/21 04:06:41;;;;;;;10.68;2.85;;;13.40;99.90;;;;;;5056904;28;20075;-90
2021/06/21 04:09:07;;;;;;;6.88;1.60;;;13.40;99.90;;;;;;5056020;28;20479;-90
2021/06/21 04:11:33;;;;;;;12.73;3.25;;;13.40;99.90;;;;;;5089459;28;20044;-89
2021/06/21 04:14:07;;;;;;;7.60;3.08;;;13.40;99.90;;;;;;5088989;28;20040;-89
2021/06/21 04:16:33;;;;;;;12.30;2.65;;;13.30;99.90;;;;;;5068317;28;20544;-90
2021/06/21 04:18:59;;;;;;;8.30;2.80;;;13.30;99.90;;;;;;5049937;28;20036;-89
2021/06/21 04:21:26;;;;;;;8.35;2.67;;;13.30;99.90;;;;;;5039707;28;20406;-90
2021/06/21 04:23:52;;;;;;;5.63;2.50;;;13.40;99.90;;;;;;5073275;28;20040;-89
2021/06/21 04:26:18;;;;;;;12.23;3.00;;;13.30;99.90;;;;;;5086234;28;20124;-89
2021/06/21 04:28:47;;;;;;;11.18;2.97;;;13.40;99.90;;;;;;5064374;28;20059;-90
2021/06/21 04:31:13;;;;;;;9.13;3.25;;;13.40;99.90;;;;;;5068731;28;20075;-89
2021/06/21 04:33:39;;;;;;;12.60;3.13;;;13.40;99.90;;;;;;5054947;28;20064;-87
2021/06/21 04:36:05;;;;;;;5.80;2.22;;;13.40;99.90;;;;;;5067922;28;20040;-91
2021/06/21 04:38:31;;;;;;;11.30;3.40;;;13.30;99.90;;;;;;5065651;28;20050;-89
2021/06/21 04:40:58;;;;;;;17.42;3.70;;;13.30;99.90;;;;;;5073084;28;20044;-89
2021/06/21 04:43:24;;;;;;;7.70;2.90;;;13.30;99.90;;;;;;5068062;28;20094;-89
2021/06/21 04:45:50;;;;;;;11.57;3.15;;;13.30;99.90;;;;;;5066683;28;20040;-88
2021/06/21 04:48:16;;;;;;;26.23;3.75;;;13.30;99.90;;;;;;5042349;28;20044;-87
2021/06/21 04:50:42;;;;;;;14.00;3.40;;;13.30;99.90;;;;;;5063784;28;20073;-88
2021/06/21 04:53:12;;;;;;;11.70;3.00;;;13.30;99.90;;;;;;5059591;28;20036;-89
2021/06/21 04:55:39;;;;;;;;;;;13.30;99.90;;;;;;5048840;28;20504;-89
2021/06/21 04:58:05;;;;;;;15.40;4.43;;;13.30;99.90;;;;;;5066442;28;19921;-89
2021/06/21 05:00:33;;;;;;;13.45;4.40;;;13.30;99.90;;;;;;5013415;28;20095;-89
2021/06/21 05:02:59;;;;;;;6.28;2.40;;;13.30;99.90;;;;;;5069757;28;20051;-89
2021/06/21 05:05:25;;;;;;;12.43;3.90;;;13.30;99.90;;;;;;5065341;28;20036;-87
2021/06/21 05:07:52;;;;;;;11.35;3.03;;;13.30;99.90;;;;;;5065686;28;20493;-88
2021/06/21 05:10:20;;;;;;;22.92;5.03;;;13.30;99.90;;;;;;5076038;28;20040;-88
2021/06/21 05:12:46;;;;;;;11.68;3.50;;;13.30;99.90;;;;;;5058023;28;20041;-87
2021/06/21 05:15:13;;;;;;;13.57;3.10;;;13.30;99.90;;;;;;5071999;28;20036;-88
2021/06/21 05:17:39;;;;;;;10.85;2.60;;;13.30;99.90;;;;;;5071418;28;20048;-88
2021/06/21 05:20:07;;;;;;;9.95;3.22;;;13.30;99.90;;;;;;5062615;28;20041;-91
2021/06/21 05:22:33;;;;;;;10.18;3.80;;;13.20;99.90;;;;;;5072238;28;20059;-88
2021/06/21 05:25:00;;;;;;;8.68;3.00;;;13.20;99.90;;;;;;5054948;28;20091;-88
2021/06/21 05:27:29;;;;;;;10.27;3.15;;;13.20;99.90;;;;;;5054441;28;20106;-87
2021/06/21 05:29:55;;;;;;;5.40;3.00;;;13.20;99.90;;;;;;5065145;28;20071;-87
2021/06/21 05:32:21;;;;;;;14.52;3.35;;;13.20;99.90;;;;;;5064401;28;20055;-87
2021/06/21 05:34:47;;;;;;;7.15;2.92;;;13.30;99.90;;;;;;5072304;28;20052;-89
2021/06/21 05:37:13;;;;;;;14.05;3.78;;;13.20;99.90;;;;;;5071236;28;20537;-89
2021/06/21 05:39:39;;;;;;;12.00;3.85;;;13.20;99.90;;;;;;5072945;28;20044;-88
2021/06/21 05:42:05;;;;;;;9.75;3.40;;;13.20;99.90;;;;;;5072800;28;20036;-88
2021/06/21 05:44:31;;;;;;;11.15;3.10;;;13.20;99.90;;;;;;5070792;28;20072;-88
2021/06/21 05:46:57;;;;;;;10.63;3.22;;;13.20;99.90;;;;;;5072167;28;20079;-88
2021/06/21 05:49:24;;;;;;;14.15;3.92;;;13.20;99.90;;;;;;5078743;28;20052;-89
2021/06/21 05:51:50;;;;;;;13.18;3.28;;;13.20;99.90;;;;;;5070624;28;20110;-89
2021/06/21 05:54:16;;;;;;;17.50;3.83;;;13.20;99.90;;;;;;5091505;28;20055;-88
2021/06/21 05:56:41;;;;;;;13.98;3.03;;;13.20;99.90;;;;;;5074294;28;20079;-88
2021/06/21 05:59:07;;;;;;;11.48;3.75;;;13.10;99.90;;;;;;5074127;28;20032;-89
2021/06/21 06:01:34;;;;;;;10.38;3.60;;;13.10;99.90;;;;;;5061376;28;20495;-91
2021/06/21 06:03:59;;;;;;;12.35;3.00;;;13.00;99.90;;;;;;5093825;28;20044;-94
2021/06/21 06:06:25;;;;;;;10.43;2.72;;;13.00;99.90;;;;;;5058820;28;20445;-94
2021/06/21 06:08:52;;;;;;;14.18;3.25;;;13.00;99.90;;;;;;5074491;28;20044;-96
2021/06/21 06:11:18;;;;;;;11.77;3.40;;;13.00;99.90;;;;;;5074961;28;20399;-95
2021/06/21 06:13:44;;;;;;;9.50;2.65;;;13.00;99.90;;;;;;5059096;28;20043;-95
2021/06/21 06:16:09;;;;;;;8.82;2.80;;;13.00;99.90;;;;;;5061243;28;20040;-93
2021/06/21 06:18:36;;;;;;;20.17;3.40;;;12.90;99.90;;;;;;5074598;28;20097;-93
2021/06/21 06:21:02;;;;;;;15.63;3.65;;;13.00;99.90;;;;;;5058486;28;20048;-93
2021/06/21 06:23:28;;;;;;;8.98;2.55;;;13.00;99.90;;;;;;5057899;28;20040;-94
2021/06/21 06:25:54;;;;;;;10.63;3.33;;;13.00;99.90;;;;;;5056007;28;20050;-93
2021/06/21 06:28:20;;;;;;;7.88;2.83;;;13.00;99.90;;;;;;5066992;28;20518;-93
2021/06/21 06:30:45;;;;;;;6.97;1.88;;;13.00;99.90;;;;;;5025592;28;20071;-92
2021/06/21 06:33:11;;;;;;;14.02;3.65;;;12.90;99.90;;;;;;5091553;28;20048;-94
2021/06/21 06:35:37;;;;;;;10.48;2.55;;;12.90;99.90;;;;;;5074988;28;20038;-92
2021/06/21 06:38:04;;;;;;;10.93;3.78;;;12.90;99.90;;;;;;5058542;28;20059;-93
2021/06/21 06:40:30;;;;;;;6.72;2.75;;;12.90;99.90;;;;;;5074792;28;20047;-92
2021/06/21 06:42:55;;;;;;;11.05;2.97;;;12.90;99.90;;;;;;5074706;28;20040;-93
2021/06/21 06:45:22;;;;;;;10.85;2.30;;;13.00;99.90;;;;;;5057381;28;20105;-93
2021/06/21 06:47:48;;;;;;;11.38;2.90;;;12.90;99.90;;;;;;5075015;28;20047;-92
2021/06/21 06:50:14;;;;;;;8.38;3.03;;;12.90;99.90;;;;;;5077020;28;20056;-95
2021/06/21 06:52:42;;;;;;;9.88;3.47;;;12.90;99.90;;;;;;5104459;28;20509;-92
2021/06/21 06:57:54;;;;;;;21.38;3.45;;;12.90;99.90;;;;;;5085268;28;20044;-93
2021/06/21 07:00:20;;;;;;;12.05;2.80;;;12.90;99.90;;;;;;5092464;28;20073;-91
2021/06/21 07:02:46;;;;;;;14.80;4.57;;;13.00;99.90;;;;;;5080973;28;20124;-93
2021/06/21 07:05:13;;;;;;;8.55;2.85;;;13.00;99.90;;;;;;5072894;28;20045;-92
2021/06/21 07:07:39;;;;;;;14.55;3.10;;;12.90;99.90;;;;;;5073894;28;20048;-92
2021/06/21 07:10:06;;;;;;;18.40;4.68;;;12.90;99.90;;;;;;5073988;28;20388;-93
2021/06/21 07:12:32;;;;;;;17.42;3.45;;;12.90;99.90;;;;;;5073298;28;20044;-93
2021/06/21 07:14:58;;;;;;;10.63;2.83;;;12.90;99.90;;;;;;5074522;28;20040;-90
2021/06/21 07:17:24;;;;;;;13.20;3.30;;;12.90;99.90;;;;;;5073387;28;20047;-92
2021/06/21 07:19:49;;;;;;;12.90;4.25;;;12.90;99.90;;;;;;5100217;28;20062;-90
2021/06/21 07:22:15;;;;;;;20.65;4.03;;;12.90;99.90;;;;;;5083621;28;20044;-94
2021/06/21 07:24:42;;;;;;;10.00;3.40;;;12.90;99.90;;;;;;5083331;28;20040;-92
2021/06/21 07:27:08;;;;;;;11.52;3.55;;;13.00;99.90;;;;;;5057527;28;20407;-94
2021/06/21 07:29:34;;;;;;;7.35;2.70;;;12.90;99.90;;;;;;5062035;28;20056;-89
2021/06/21 07:32:00;;;;;;;13.70;3.25;;;12.90;99.90;;;;;;5072518;28;20040;-92
2021/06/21 07:34:26;;;;;;;12.68;2.65;;;12.90;99.90;;;;;;5087716;28;20471;-95
2021/06/21 07:36:52;;;;;;;12.00;2.75;;;12.90;99.90;;;;;;5085337;28;20069;-91
2021/06/21 07:39:18;;;;;;;7.85;2.80;;;12.90;99.90;;;;;;5073056;28;20085;-89
2021/06/21 07:41:44;;;;;;;9.43;2.33;;;12.80;99.90;;;;;;5069202;28;20032;-88
2021/06/21 07:44:10;;;;;;;12.38;2.83;;;12.80;99.90;;;;;;5086536;28;20518;-90
2021/06/21 07:46:36;;;;;;;10.10;3.00;;;12.90;99.90;;;;;;5068236;28;20052;-90
2021/06/21 07:49:02;;;;;;;12.35;2.92;;;12.90;99.90;;;;;;5088641;28;20055;-88
2021/06/21 07:51:30;;;;;;;21.85;4.68;;;12.80;99.90;;;;;;5053702;28;20044;-89
2021/06/21 07:53:57;;;;;;;10.90;3.35;;;12.80;99.90;;;;;;5054049;28;20119;-88
2021/06/21 07:56:23;;;;;;;16.98;3.50;;;12.80;99.90;;;;;;5072121;28;20028;-87
2021/06/21 07:58:49;;;;;;;10.23;3.15;;;12.90;99.90;;;;;;5039069;28;20382;-87
2021/06/21 08:01:16;;;;;;;11.13;3.08;;;12.90;99.90;;;;;;5080905;28;20036;-88
2021/06/21 08:03:43;;;;;;;21.45;4.18;;;12.90;99.90;;;;;;5058041;28;20071;-87
2021/06/21 08:06:13;;;;;;;12.98;3.38;;;12.90;99.90;;;;;;5081073;28;20044;-87
2021/06/21 08:08:40;;;;;;;17.85;4.55;;;12.90;99.90;;;;;;5085020;28;20048;-90
2021/06/21 08:11:07;;;;;;;18.50;3.17;;;12.90;99.90;;;;;;5086733;28;20047;-87
2021/06/21 08:13:33;;;;;;;19.80;4.03;;;12.90;99.90;;;;;;5076915;28;20041;-86
2021/06/21 08:15:59;;;;;;;23.77;3.22;;;13.00;99.90;;;;;;5084152;28;20400;-86
2021/06/21 08:18:25;;;;;;;13.57;2.78;;;13.00;99.90;;;;;;5070695;28;20119;-87
2021/06/21 08:20:51;;;;;;;16.60;3.60;;;13.10;99.90;;;;;;5091191;28;20808;-86
2021/06/21 08:23:18;;;;;;;13.65;3.60;;;13.00;99.90;;;;;;5092797;28;20044;-87
2021/06/21 08:25:45;;;;;;;13.02;2.72;;;13.00;99.90;;;;;;5073757;28;20040;-87
2021/06/21 08:28:11;;;;;;;12.90;2.33;;;13.10;99.90;;;;;;5054700;28;20044;-87
2021/06/21 08:30:38;;;;;;;17.63;3.67;;;13.00;99.90;;;;;;5082333;28;20051;-87
2021/06/21 08:33:04;;;;;;;18.33;3.25;;;13.10;99.90;;;;;;5072580;28;20039;-86
2021/06/21 08:35:31;;;;;;;11.07;3.83;;;13.00;99.90;;;;;;5090177;28;20043;-87
2021/06/21 08:37:57;;;;;;;28.35;4.75;;;13.00;99.90;;;;;;5091445;28;20040;-92
2021/06/21 08:40:24;;;;;;;23.00;3.08;;;13.10;99.90;;;;;;5068298;28;20040;-92
2021/06/21 08:42:51;;;;;;;16.23;3.03;;;13.00;99.90;;;;;;5070748;28;20063;-88
2021/06/21 08:45:18;;;;;;;14.48;3.47;;;13.00;99.90;;;;;;5090088;28;20067;-88
2021/06/21 08:47:44;;;;;;;10.68;2.40;;;13.00;99.90;;;;;;5072974;28;20032;-89
2021/06/21 08:50:13;;;;;;;12.40;2.40;;;13.00;99.90;;;;;;5048441;28;20114;-87
2021/06/21 08:52:41;;;;;;;16.55;3.00;;;13.00;99.90;;;;;;5063584;28;20049;-87
2021/06/21 08:55:07;;;;;;;8.88;2.35;;;13.00;99.90;;;;;;5057813;28;20086;-87
2021/06/21 08:57:36;;;;;;;14.45;2.80;;;13.00;99.90;;;;;;5066343;28;20037;-87
2021/06/21 09:00:04;;;;;;;10.93;2.45;;;13.00;99.90;;;;;;5069194;28;20175;-88
2021/06/21 09:02:31;;;;;;;13.35;2.65;;;13.00;99.90;;;;;;5066422;28;20055;-88
2021/06/21 09:04:57;;;;;;;13.38;2.47;;;13.00;99.90;;;;;;5022907;28;20074;-87
2021/06/21 09:07:25;;;;;;;13.57;2.45;;;12.90;99.90;;;;;;5070994;28;20037;-89
2021/06/21 09:09:53;;;;;;;13.90;2.40;;;12.90;99.90;;;;;;5068924;28;20127;-87
2021/06/21 09:12:21;;;;;;;13.02;3.15;;;13.00;99.90;;;;;;5053711;28;20041;-87
2021/06/21 09:14:48;;;;;;;13.55;2.70;;;13.00;99.90;;;;;;5069550;28;20059;-88
2021/06/21 09:17:19;;;;;;;6.47;1.70;;;12.90;99.90;;;;;;5070906;28;20510;-88
2021/06/21 09:20:04;;;;;;;10.05;1.75;;;13.00;99.90;;;;;;5052621;28;20037;-89
2021/06/21 09:22:53;;;;;;;7.50;1.98;;;13.00;99.90;;;;;;5070165;28;20040;-88
2021/06/21 09:25:19;;;;;;;12.45;2.50;;;13.00;99.90;;;;;;5053390;28;20077;-87
2021/06/21 09:28:03;;;;;;;7.43;1.38;;;12.90;99.90;;;;;;5070059;28;20041;-87
2021/06/21 09:30:30;;;;;;;8.85;1.98;;;12.80;99.90;;;;;;5070064;28;20064;-88
2021/06/21 09:32:58;;;;;;;13.45;2.45;;;12.90;99.90;;;;;;5052271;28;20040;-88
2021/06/21 09:35:30;;;;;;;11.80;2.10;;;12.90;99.90;;;;;;5070673;28;20052;-88
2021/06/21 09:38:12;;;;;;;7.43;1.63;;;12.90;99.90;;;;;;5069763;28;20040;-87
2021/06/21 09:40:42;;;;;;;24.48;4.55;;;12.90;99.90;;;;;;5070036;28;20048;-87
2021/06/21 09:43:37;;;;;;;6.63;2.25;;;12.90;99.90;;;;;;5070572;28;20052;-88
2021/06/21 09:46:05;;;;;;;6.05;1.48;;;12.80;99.90;;;;;;5037669;28;20052;-87
2021/06/21 09:48:34;;;;;;;13.85;2.90;;;12.80;99.90;;;;;;5069784;28;20064;-89
2021/06/21 09:51:35;;;;;;;11.20;2.50;;;12.80;99.90;;;;;;5084395;28;20060;-87
2021/06/21 09:54:20;;;;;;;10.50;2.30;;;12.80;99.90;;;;;;5070867;28;20507;-86
2021/06/21 09:56:51;;;;;;;10.15;2.30;;;12.80;99.90;;;;;;5083960;28;20028;-87
2021/06/21 09:59:28;;;;;;;7.82;1.90;;;12.80;99.90;;;;;;5079465;28;20515;-87
2021/06/21 10:02:01;;;;;;;7.07;2.05;;;12.80;99.90;;;;;;5081469;28;20055;-87
2021/06/21 10:04:27;;;;;;;6.30;1.63;;;12.80;99.90;;;;;;5080078;28;20047;-88
2021/06/21 10:06:53;;;;;;;6.78;2.28;;;12.80;99.90;;;;;;5069619;28;20503;-86
2021/06/21 10:09:19;;;;;;;10.00;2.30;;;12.80;99.90;;;;;;5077672;28;20044;-86
2021/06/21 10:11:46;;;;;;;13.00;1.85;;;12.70;99.90;;;;;;5088394;28;20059;-87
2021/06/21 10:14:17;;;;;;;5.28;1.45;;;12.70;99.90;;;;;;5085574;28;20131;-86
2021/06/21 10:16:45;;;;;;;9.05;2.10;;;12.70;99.90;;;;;;5060826;28;20052;-86
2021/06/21 10:19:12;;;;;;;4.63;1.50;;;12.70;99.90;;;;;;5073176;28;20078;-87
2021/06/21 10:21:43;;;;;;;10.20;1.63;;;12.70;99.90;;;;;;5081520;28;20040;-87
2021/06/21 10:24:09;;;;;;;8.40;2.17;;;12.70;99.90;;;;;;5084098;28;20071;-87
2021/06/21 10:26:41;;;;;;;11.50;2.22;;;12.80;99.90;;;;;;5087528;28;20131;-88
2021/06/21 10:29:08;;;;;;;7.43;2.25;;;12.80;99.90;;;;;;5089337;28;20522;-87
2021/06/21 10:31:35;;;;;;;5.22;1.80;;;12.80;99.90;;;;;;5088217;28;20044;-87
2021/06/21 10:34:06;;;;;;;12.75;1.75;;;12.90;99.90;;;;;;5088417;28;20077;-86
2021/06/21 10:36:56;;;;;;;9.00;1.95;;;12.90;99.90;;;;;;5091412;28;20032;-90
2021/06/21 10:39:27;;;;;;;9.65;1.75;;;12.90;99.90;;;;;;5090782;28;20067;-87
2021/06/21 10:42:05;;;;;;;12.88;2.95;;;12.90;99.90;;;;;;5090113;28;20039;-87
2021/06/21 10:45:01;;;;;;;8.68;2.17;;;12.90;99.90;;;;;;5088619;28;20048;-88
2021/06/21 10:47:26;;;;;;;11.98;2.35;;;12.90;99.90;;;;;;5084266;28;20048;-87
2021/06/21 10:50:01;;;;;;;9.05;2.08;;;13.00;99.90;;;;;;5089472;28;20097;-87
2021/06/21 10:52:31;;;;;;;9.27;1.73;;;13.00;99.90;;;;;;5089809;28;20055;-87
2021/06/21 10:55:26;;;;;;;12.70;2.33;;;13.00;99.90;;;;;;5096058;28;20044;-87
2021/06/21 10:58:11;;;;;;;6.55;1.42;;;13.10;99.90;;;;;;5092360;28;20074;-87
2021/06/21 11:00:48;;;;;;;12.30;2.10;;;13.00;99.90;;;;;;5108237;27;20050;-87
2021/06/21 11:03:23;;;;;;;7.28;1.88;;;13.00;99.90;;;;;;5088210;28;20456;-87
2021/06/21 11:05:52;;;;;;;4.78;1.70;;;13.00;99.90;;;;;;5098922;27;20105;-88
2021/06/21 11:08:23;;;;;;;9.10;1.88;;;12.90;99.90;;;;;;5093049;28;20051;-87
2021/06/21 11:10:57;;;;;;;9.15;2.17;;;12.80;99.90;;;;;;5088623;28;20052;-88
2021/06/21 11:13:35;;;;;;;8.63;1.42;;;12.80;99.90;;;;;;5068325;28;20049;-88
2021/06/21 11:16:24;;;;;;;11.98;1.85;;;12.80;99.90;;;;;;5067761;28;20480;-88
2021/06/21 11:19:13;;;;;;;7.18;2.08;;;12.80;99.90;;;;;;5071408;28;20403;-89
2021/06/21 11:21:50;;;;;;;6.95;1.52;;;12.70;99.90;;;;;;5059257;28;20075;-87
2021/06/21 11:24:42;;;;;;;10.55;3.22;;;12.70;99.90;;;;;;5072782;28;20036;-89
2021/06/21 11:27:13;;;;;;;9.05;2.60;;;12.80;99.90;;;;;;5083609;28;20040;-88
2021/06/21 11:29:42;;;;;;;11.43;2.67;;;12.80;99.90;;;;;;5068550;28;20036;-89
2021/06/21 11:32:10;;;;;;;14.85;2.20;;;12.80;99.90;;;;;;5061782;28;20040;-88
2021/06/21 11:34:47;;;;;;;7.18;1.73;;;12.70;99.90;;;;;;5084731;28;20044;-89
2021/06/21 11:37:44;;;;;;;12.75;1.85;;;12.70;99.90;;;;;;5088823;28;20051;-88
2021/06/21 11:40:17;;;;;;;13.57;3.45;;;12.80;99.90;;;;;;5067708;28;20045;-89
2021/06/21 11:43:04;;;;;;;14.63;2.42;;;12.70;99.90;;;;;;5066864;28;20045;-89
2021/06/21 11:45:51;;;;;;;9.93;2.22;;;12.70;99.90;;;;;;5078361;28;20036;-89
2021/06/21 11:48:35;;;;;;;8.45;2.00;;;12.80;99.90;;;;;;5070068;28;20126;-89
2021/06/21 11:51:21;;;;;;;8.75;1.50;;;12.80;99.90;;;;;;5062000;28;20064;-89
2021/06/21 11:53:48;;;;;;;8.65;2.65;;;12.80;99.90;;;;;;5089663;28;20491;-88
2021/06/21 11:56:15;;;;;;;11.30;2.17;;;12.80;99.90;;;;;;5091304;28;20046;-88
2021/06/21 11:58:41;;;;;;;8.43;2.60;;;12.80;99.90;;;;;;5087053;28;20510;-89
2021/06/21 12:01:37;;;;;;;5.75;1.65;;;12.90;99.90;;;;;;5082346;28;20044;-88
2021/06/21 12:04:06;;;;;;;8.75;1.92;;;12.90;99.90;;;;;;5080798;28;20052;-89
2021/06/21 12:06:32;;;;;;;14.68;2.92;;;13.00;99.90;;;;;;5069211;28;20498;-88
2021/06/21 12:08:58;;;;;;;7.80;2.25;;;13.00;99.90;;;;;;5053104;28;20119;-88
2021/06/21 12:11:28;;;;;;;9.75;2.45;;;13.10;99.90;;;;;;5081965;28;20683;-88
2021/06/21 12:14:00;;;;;;;12.48;2.58;;;13.20;99.90;;;;;;5070960;28;20495;-89
2021/06/21 12:16:28;;;;;;;11.85;2.28;;;13.20;99.90;;;;;;5091109;28;20109;-88
2021/06/21 12:18:58;;;;;;;9.57;2.00;;;13.20;99.90;;;;;;5073658;28;20127;-88
2021/06/21 12:21:27;;;;;;;7.25;1.75;;;13.10;99.90;;;;;;5090597;28;20052;-88
2021/06/21 12:23:53;;;;;;;14.07;2.47;;;13.10;99.90;;;;;;5090217;28;20036;-88
2021/06/21 12:26:19;;;;;;;14.95;3.72;;;13.10;99.90;;;;;;5070480;28;20047;-89
2021/06/21 12:28:45;;;;;;;13.02;2.55;;;13.10;99.90;;;;;;5068994;28;20484;-88
2021/06/21 12:31:16;;;;;;;9.45;1.95;;;13.00;99.90;;;;;;5084631;28;20052;-88
2021/06/21 12:33:43;;;;;;;18.67;3.17;;;13.00;99.90;;;;;;5082125;28;20029;-90
2021/06/21 12:36:12;;;;;;;25.58;4.18;;;13.00;99.90;;;;;;5065154;28;20044;-89
2021/06/21 12:38:52;;;;;;;17.77;3.83;;;13.00;99.90;;;;;;5077062;28;20036;-89
2021/06/21 12:41:29;;;;;;;10.73;3.00;;;12.90;99.90;;;;;;5095869;28;20044;-89
2021/06/21 12:44:00;;;;;;;20.85;3.17;;;13.00;99.90;;;;;;5091570;28;20035;-90
2021/06/21 12:46:38;;;;;;;23.05;4.18;;;13.00;99.90;;;;;;5090588;28;20039;-88
2021/06/21 12:49:07;;;;;;;19.30;3.55;;;13.00;99.90;;;;;;5086613;28;20038;-91
2021/06/21 12:51:34;;;;;;;14.85;2.95;;;13.00;99.90;;;;;;5107000;28;20087;-90
2021/06/21 12:54:00;;;;;;;18.77;3.67;;;13.00;99.90;;;;;;5091841;28;20064;-88